createdAt,value
2022-10-23T09:44:17.496Z,101041.97
2022-10-23T09:49:24.509Z,101041.97
2022-10-23T09:54:26.588Z,101038.38
2022-10-23T09:59:34.510Z,101047.63
2022-10-23T10:04:38.564Z,101041.06
2022-10-23T10:09:40.708Z,101042.75
2022-10-23T10:15:05.037Z,101049.63
2022-10-23T10:20:07.313Z,101033.16
2022-10-23T10:25:34.165Z,101024.19
2022-10-23T10:30:42.297Z,101014.31
2022-10-23T10:36:00.796Z,101011.53
2022-10-23T10:41:05.756Z,101009.13
2022-10-23T10:46:37.150Z,101017.63
2022-10-23T10:52:01.334Z,101004.91
2022-10-23T10:57:05.404Z,100989.09
2022-10-23T11:02:13.752Z,100988.41
2022-10-23T11:07:19.178Z,100986.66
2022-10-23T11:12:26.547Z,100978.84
2022-10-23T11:17:40.000Z,100972.41
2022-10-23T11:23:21.238Z,100960.50
2022-10-23T11:29:01.064Z,100963.78
2022-10-23T11:34:08.892Z,100946.97
2022-10-23T11:39:31.976Z,100952.09
2022-10-23T11:44:45.005Z,100947.84
2022-10-23T11:54:40.590Z,100924.50
2022-10-23T11:59:45.394Z,100924.50
2022-10-23T12:04:50.670Z,100931.50
2022-10-23T12:09:59.449Z,100926.06
2022-10-23T12:15:12.112Z,100912.44
2022-10-23T12:20:14.072Z,100918.91
2022-10-23T12:25:42.155Z,100910.59
2022-10-23T12:31:02.889Z,100895.19
2022-10-23T12:36:15.974Z,100885.06
2022-10-23T12:41:29.659Z,100871.31
2022-10-23T12:46:33.177Z,100886.97
2022-10-23T12:51:35.785Z,100870.44
2022-10-23T12:56:39.018Z,100858.59
2022-10-23T13:01:43.296Z,100851.72
2022-10-23T13:06:45.979Z,100861.44
2022-10-23T13:11:49.369Z,100851.69
2022-10-23T13:17:03.135Z,100852.84
2022-10-23T13:22:18.524Z,100840.66
2022-10-23T13:27:34.194Z,100842.38
2022-10-23T13:32:36.272Z,100840.41
2022-10-23T13:42:53.318Z,100824.41
2022-10-23T13:47:55.471Z,100838.56
2022-10-23T13:52:58.395Z,100818.62
2022-10-23T13:58:00.444Z,100824.94
2022-10-23T14:03:02.479Z,100812.91
2022-10-23T14:08:04.535Z,100794.03
2022-10-23T14:13:06.771Z,100809.44
2022-10-23T14:18:08.944Z,100800.19
2022-10-23T14:23:11.022Z,100787.34
2022-10-23T14:28:13.089Z,100784.84
2022-10-23T14:33:16.723Z,100773.97
2022-10-23T14:38:18.766Z,100782.44
2022-10-23T14:43:21.913Z,100778.31
2022-10-23T14:48:23.928Z,100779.13
2022-10-23T14:53:25.931Z,100761.09
2022-10-23T14:58:28.472Z,100759.44
2022-10-23T15:03:30.736Z,100744.69
2022-10-23T15:08:33.529Z,100748.25
2022-10-23T15:13:35.520Z,100760.31
2022-10-23T15:23:46.011Z,100728.56
2022-10-23T15:28:53.307Z,100726.66
2022-10-23T15:33:58.706Z,100715.72
2022-10-23T15:39:01.035Z,100732.41
2022-10-23T15:44:05.244Z,100744.44
2022-10-23T15:49:08.554Z,100742.81
2022-10-23T15:54:18.994Z,100731.56
2022-10-23T15:59:24.547Z,100741.69
2022-10-23T16:04:26.560Z,100739.25
2022-10-23T16:09:29.752Z,100743.66
2022-10-23T16:14:31.744Z,100756.78
2022-10-23T16:19:34.270Z,100771.28
2022-10-23T16:24:36.412Z,100767.75
2022-10-23T16:29:38.416Z,100768.28
2022-10-23T16:34:40.459Z,100786.34
2022-10-23T16:39:42.431Z,100788.53
2022-10-23T16:44:44.437Z,100790.13
2022-10-23T16:49:46.452Z,100793.97
2022-10-23T16:54:48.457Z,100776.47
2022-10-23T16:59:50.458Z,100771.53
2022-10-23T17:04:52.535Z,100771.53
2022-10-23T17:09:54.552Z,100789.56
2022-10-23T17:14:56.594Z,100818.28
2022-10-23T17:19:58.639Z,100809.25
2022-10-23T17:25:00.674Z,100802.94
2022-10-23T17:30:02.831Z,100794.47
2022-10-23T17:35:06.501Z,100789.56
2022-10-23T17:40:09.120Z,100771.78
2022-10-23T17:45:11.362Z,100778.63
2022-10-23T17:50:13.910Z,100783.31
2022-10-23T17:55:15.965Z,100782.75
2022-10-23T18:00:18.047Z,100758.13
2022-10-23T18:05:20.220Z,100748.28
2022-10-23T18:10:22.254Z,100768.25
2022-10-23T18:15:24.254Z,100770.72
2022-10-23T18:20:26.265Z,100763.06
2022-10-23T18:25:28.298Z,100771.53
2022-10-23T18:30:30.368Z,100765.25
2022-10-23T18:35:35.863Z,100767.19
2022-10-23T18:40:38.340Z,100772.94
2022-10-23T18:45:42.661Z,100778.38
2022-10-23T18:50:44.646Z,100767.19
2022-10-23T18:55:50.974Z,100771.81
2022-10-23T19:00:53.021Z,100762.56
2022-10-23T19:05:55.028Z,100770.47
2022-10-23T19:11:00.193Z,100769.91
2022-10-23T19:16:06.022Z,100773.75
2022-10-23T19:21:08.204Z,100765.28
2022-10-23T19:26:13.345Z,100768.28
2022-10-23T19:31:16.048Z,100777.06
2022-10-23T19:36:21.009Z,100784.16
